Time;durP1;ratioP1;P1;durP2;ratioP2;P2;SDS_P1;SDS_P2;PMS_P1;PMS_P2;Temp;Humidity;BMP_temperature;BMP_pressure;BME280_temperature;BME280_humidity;BME280_pressure;Samples;Min_cycle;Max_cycle;Signal;HPM_P1;HPM_P2
2022/08/12 00:48:53;;;;;;;6.53;2.88;;;;;;;18.58;50.39;100467.03;20812509;28;20060;-67
2022/08/12 00:58:55;;;;;;;5.82;3.00;;;;;;;18.30;53.00;100471.91;20813592;28;20053;-67
2022/08/12 01:19:16;;;;;;;7.32;2.90;;;;;;;18.41;50.94;100474.94;20812895;28;20133;-67
2022/08/12 01:29:22;;;;;;;6.05;2.58;;;;;;;18.45;50.01;100469.41;20810892;28;20124;-67
2022/08/12 01:39:24;;;;;;;4.75;2.25;;;;;;;18.53;48.24;100452.28;20810085;28;20046;-67
2022/08/12 01:49:26;;;;;;;5.50;2.30;;;;;;;18.58;47.81;100466.16;20809821;28;20064;-67
2022/08/12 01:59:46;;;;;;;4.22;2.38;;;;;;;18.55;47.88;100472.50;20804689;28;20049;-68
2022/08/12 02:20:07;;;;;;;5.93;2.40;;;;;;;18.39;48.99;100460.88;20808688;28;20049;-67
2022/08/12 02:30:09;;;;;;;5.65;2.40;;;;;;;18.30;49.86;100456.00;20805840;28;20054;-68
2022/08/12 02:40:10;;;;;;;4.68;2.40;;;;;;;18.14;50.11;100451.41;20805522;28;20050;-67
2022/08/12 02:50:12;;;;;;;6.65;2.63;;;;;;;17.78;52.98;100445.16;20806016;28;20155;-67
2022/08/12 03:00:17;;;;;;;6.93;2.70;;;;;;;17.31;55.22;100453.34;20805006;28;20045;-67
2022/08/12 03:10:19;;;;;;;5.47;2.30;;;;;;;17.12;56.29;100456.78;20803972;28;20420;-67
2022/08/12 03:20:39;;;;;;;5.88;2.53;;;;;;;16.86;56.95;100462.25;20803977;28;20045;-68
2022/08/12 03:30:41;;;;;;;4.97;2.60;;;;;;;16.89;57.00;100462.16;20803281;28;20046;-67
2022/08/12 04:01:26;;;;;;;7.13;2.70;;;;;;;16.86;55.82;100478.13;20802086;28;20045;-67
2022/08/12 04:21:48;;;;;;;8.02;2.75;;;;;;;17.18;53.54;100477.66;20807921;28;20062;-67
2022/08/12 04:32:05;;;;;;;6.03;2.85;;;;;;;17.43;52.61;100484.56;20816841;28;20054;-67
2022/08/12 04:42:06;;;;;;;7.05;3.05;;;;;;;17.33;53.28;100485.91;20815291;28;20057;-67
2022/08/12 04:52:08;;;;;;;9.00;2.70;;;;;;;17.14;54.73;100491.09;20815619;28;20060;-67
2022/08/12 05:02:09;;;;;;;7.22;3.00;;;;;;;17.23;55.36;100496.00;20814166;28;20053;-67
2022/08/12 05:12:22;;;;;;;10.52;3.72;;;;;;;17.35;57.58;100507.88;20814111;28;20056;-67
2022/08/12 05:22:23;;;;;;;5.55;2.80;;;;;;;17.63;55.51;100511.06;20812691;28;20049;-68
2022/08/12 05:32:24;;;;;;;7.78;2.80;;;;;;;17.99;54.63;100526.31;20811650;28;20045;-67
2022/08/12 05:42:26;;;;;;;9.75;2.92;;;;;;;18.27;53.48;100527.72;20811438;28;20041;-67
2022/08/12 05:52:34;;;;;;;6.93;3.13;;;;;;;18.58;52.69;100546.56;20810159;28;20099;-67
2022/08/12 06:02:36;;;;;;;5.32;2.80;;;;;;;18.82;51.92;100549.91;20809059;28;20045;-68
2022/08/12 06:12:37;;;;;;;7.90;2.80;;;;;;;19.14;51.76;100551.03;20808365;28;20045;-66
2022/08/12 06:22:39;;;;;;;10.32;3.00;;;;;;;19.38;51.61;100548.94;20807522;28;20038;-66
2022/08/12 06:32:40;;;;;;;7.60;2.70;;;;;;;19.80;51.32;100541.59;20806294;28;20049;-66
2022/08/12 06:43:02;;;;;;;6.05;2.72;;;;;;;20.31;47.90;100545.06;20805300;28;20056;-66
2022/08/12 06:53:04;;;;;;;5.75;2.40;;;;;;;20.64;47.59;100540.59;20804391;28;20053;-66
2022/08/12 07:03:06;;;;;;;8.05;2.40;;;;;;;20.78;46.10;100533.66;20805136;28;20439;-67
2022/08/12 07:13:23;;;;;;;7.50;2.60;;;;;;;21.01;46.71;100525.25;20805104;28;20049;-67
2022/08/12 07:23:25;;;;;;;4.97;2.33;;;;;;;21.45;45.62;100519.16;20802637;28;20052;-66
2022/08/12 07:33:30;;;;;;;6.07;2.60;;;;;;;21.69;43.79;100533.69;20799413;28;20050;-69
2022/08/12 07:43:31;;;;;;;8.57;2.47;;;;;;;21.96;42.91;100531.19;20850812;23;20045;-72
2022/08/12 07:53:33;;;;;;;4.07;2.30;;;;;;;22.23;43.89;100518.00;20857312;28;20457;-72
2022/08/12 08:14:09;;;;;;;6.47;2.50;;;;;;;22.72;41.59;100524.72;20822795;28;20050;-71
2022/08/12 08:24:14;;;;;;;6.40;2.63;;;;;;;23.12;40.65;100522.13;20819693;28;20080;-71
2022/08/12 08:34:16;;;;;;;6.50;2.60;;;;;;;23.60;40.24;100518.00;20821753;28;20053;-73
2022/08/12 08:44:38;;;;;;;4.90;2.30;;;;;;;24.06;38.54;100512.19;20897889;28;20048;-72
2022/08/12 08:54:39;;;;;;;4.22;2.08;;;;;;;24.41;38.23;100504.34;20899644;28;20053;-74
2022/08/12 09:04:40;;;;;;;5.43;1.95;;;;;;;24.95;35.61;100497.75;20898609;28;20052;-73
2022/08/12 09:15:02;;;;;;;7.65;2.17;;;;;;;25.48;33.58;100491.06;20899909;28;20552;-75
2022/08/12 09:25:17;;;;;;;6.07;2.03;;;;;;;25.77;33.27;100467.38;20897752;28;20569;-73
2022/08/12 09:35:26;;;;;;;5.93;2.17;;;;;;;26.01;31.24;100466.41;20853839;28;20103;-75
2022/08/12 09:45:30;;;;;;;6.85;1.70;;;;;;;26.46;30.90;100451.19;20891892;28;20040;-73
2022/08/12 09:55:52;;;;;;;5.73;2.10;;;;;;;26.73;29.29;100434.63;20829767;28;20076;-72
2022/08/12 10:06:13;;;;;;;4.97;1.60;;;;;;;27.07;27.94;100413.88;20892095;28;20049;-72
2022/08/12 10:16:32;;;;;;;3.25;1.60;;;;;;;27.33;27.12;100408.97;20893066;28;20044;-72
2022/08/12 10:37:05;;;;;;;9.13;1.90;;;;;;;27.52;26.98;100391.25;20891846;28;20064;-73
2022/08/12 10:47:27;;;;;;;5.88;1.83;;;;;;;27.63;27.73;100377.72;20893444;28;20265;-74
2022/08/12 10:57:49;;;;;;;7.05;1.70;;;;;;;27.84;27.66;100377.72;20893438;28;20052;-72
2022/08/12 11:08:11;;;;;;;4.18;1.80;;;;;;;27.81;26.39;100368.06;20890114;28;20569;-72
2022/08/12 11:18:32;;;;;;;4.35;1.73;;;;;;;28.23;26.17;100350.91;20888739;28;20055;-72
2022/08/12 11:28:35;;;;;;;9.25;1.88;;;;;;;27.93;25.86;100341.03;20891464;28;20417;-73
2022/08/12 11:38:38;;;;;;;5.50;1.70;;;;;;;28.19;25.75;100347.63;20840987;28;20049;-73
2022/08/12 11:48:41;;;;;;;6.07;1.70;;;;;;;28.19;26.05;100326.09;20829709;28;20092;-73
2022/08/12 11:58:52;;;;;;;5.43;1.90;;;;;;;28.40;25.36;100327.84;20905694;28;20056;-73
2022/08/12 12:09:17;;;;;;;5.05;1.88;;;;;;;28.20;25.29;100311.63;20902752;28;20532;-71
2022/08/12 12:19:18;;;;;;;3.40;1.50;;;;;;;28.42;24.85;100310.56;20902614;28;20068;-73
2022/08/12 12:29:41;;;;;;;5.80;2.43;;;;;;;28.47;25.97;100294.00;20901395;28;20045;-75
2022/08/12 12:40:02;;;;;;;3.25;1.75;;;;;;;28.40;24.95;100276.69;20982581;28;20192;-76
2022/08/12 12:50:06;;;;;;;9.27;2.22;;;;;;;28.40;24.49;100279.38;20872706;28;76576;-74
2022/08/12 13:00:13;;;;;;;3.85;1.35;;;;;;;28.74;23.35;100261.75;20811520;28;20052;-74
2022/08/12 13:10:15;;;;;;;4.68;1.85;;;;;;;29.14;23.48;100261.56;20815367;28;20275;-75
2022/08/12 13:20:16;;;;;;;7.32;1.80;;;;;;;28.89;24.32;100263.03;20739424;28;20803;-74
2022/08/12 13:30:37;;;;;;;7.38;1.75;;;;;;;29.05;23.71;100258.91;20780159;28;20100;-75
2022/08/12 13:40:49;;;;;;;4.63;1.45;;;;;;;29.10;24.61;100257.47;20910097;23;20067;-69
2022/08/12 13:50:51;;;;;;;5.30;1.88;;;;;;;29.11;24.13;100258.31;20811221;28;20045;-68
2022/08/12 14:00:54;;;;;;;5.43;1.40;;;;;;;29.34;24.05;100238.06;20810521;28;20119;-68
2022/08/12 14:10:56;;;;;;;4.63;1.65;;;;;;;29.23;24.25;100219.38;20810754;28;20508;-67
2022/08/12 14:20:59;;;;;;;5.65;1.60;;;;;;;29.47;23.94;100215.28;20809737;28;20056;-68
2022/08/12 14:31:04;;;;;;;3.33;1.30;;;;;;;29.25;23.91;100206.59;20808204;28;20061;-66
2022/08/12 14:41:18;;;;;;;4.30;1.50;;;;;;;29.56;23.62;100201.78;20807458;28;20050;-66
2022/08/12 14:51:23;;;;;;;3.13;1.30;;;;;;;29.61;21.85;100195.94;20806383;28;20045;-66
2022/08/12 15:01:44;;;;;;;3.65;1.25;;;;;;;29.58;23.15;100196.22;20808228;28;20049;-67
2022/08/12 15:11:47;;;;;;;4.13;1.40;;;;;;;29.43;23.19;100182.38;20807888;28;20053;-67
2022/08/12 15:21:56;;;;;;;4.68;1.33;;;;;;;29.51;22.56;100187.00;20806075;28;20107;-66
2022/08/12 15:32:17;;;;;;;3.47;1.30;;;;;;;29.46;22.74;100181.19;20806296;28;20053;-67
2022/08/12 15:42:33;;;;;;;2.28;0.98;;;;;;;29.60;21.63;100186.13;20804678;28;20081;-67
2022/08/12 15:52:34;;;;;;;3.92;1.20;;;;;;;29.68;21.32;100179.97;20805939;28;20052;-67
2022/08/12 16:02:36;;;;;;;2.80;1.08;;;;;;;29.73;21.59;100172.25;20801006;28;20517;-66
2022/08/12 16:12:38;;;;;;;3.70;1.30;;;;;;;29.67;21.69;100172.88;20801877;28;20052;-67
2022/08/12 16:22:39;;;;;;;2.77;1.10;;;;;;;29.66;21.90;100169.34;20813748;28;20123;-68
2022/08/12 16:32:47;;;;;;;3.08;1.05;;;;;;;29.63;22.37;100161.53;20815262;28;20096;-66
2022/08/12 16:42:54;;;;;;;2.67;1.00;;;;;;;29.67;22.20;100162.09;20812608;28;20084;-66
2022/08/12 16:53:05;;;;;;;4.03;1.30;;;;;;;29.62;21.95;100158.00;20814907;28;20418;-66
2022/08/12 17:03:09;;;;;;;3.77;1.50;;;;;;;29.54;22.50;100152.50;20810127;28;20099;-67
2022/08/12 17:13:10;;;;;;;;;;;;;;;29.39;22.83;100144.06;20812195;28;20065;-66
2022/08/12 17:23:13;;;;;;;5.20;1.30;;;;;;;29.16;22.94;100158.09;20810915;28;19921;-66
2022/08/12 17:33:19;;;;;;;4.83;1.47;;;;;;;28.83;24.36;100153.09;20807464;28;21136;-66
2022/08/12 17:43:25;;;;;;;4.38;1.10;;;;;;;28.65;24.24;100160.28;20801761;28;20115;-67
2022/08/12 17:53:46;;;;;;;4.72;1.38;;;;;;;28.38;24.82;100159.19;20807320;28;21442;-67
2022/08/12 18:04:08;;;;;;;3.60;1.30;;;;;;;28.21;24.56;100167.94;20806582;28;20049;-67
2022/08/12 18:14:29;;;;;;;7.13;1.33;;;;;;;27.74;25.49;100175.91;20805895;28;20049;-67
2022/08/12 18:24:31;;;;;;;4.57;1.30;;;;;;;27.25;26.02;100182.94;20805929;28;20533;-66
2022/08/12 18:34:33;;;;;;;5.13;1.20;;;;;;;26.88;27.14;100181.78;20805532;28;20453;-67
2022/08/12 18:44:34;;;;;;;3.88;1.25;;;;;;;26.37;27.98;100196.84;20803483;28;20049;-66
2022/08/12 18:54:39;;;;;;;3.97;1.42;;;;;;;26.03;28.53;100198.84;20803687;28;20056;-67
2022/08/12 19:04:49;;;;;;;4.10;1.30;;;;;;;25.69;29.39;100206.13;20802763;28;20706;-67
2022/08/12 19:14:58;;;;;;;5.57;1.20;;;;;;;25.42;30.11;100207.38;20804232;28;20665;-67
2022/08/12 19:25:23;;;;;;;4.35;1.40;;;;;;;25.15;30.57;100220.31;20802644;28;20057;-66
2022/08/12 19:35:45;;;;;;;4.00;1.40;;;;;;;24.98;30.94;100229.66;20800138;28;20045;-67
2022/08/12 19:46:06;;;;;;;2.45;1.13;;;;;;;24.65;32.14;100223.28;20801285;28;20107;-66
2022/08/12 19:56:10;;;;;;;5.57;1.33;;;;;;;24.37;32.22;100224.53;20812559;28;20053;-67
2022/08/12 20:06:12;;;;;;;5.03;1.20;;;;;;;24.11;32.88;100242.53;20815940;28;20049;-66
2022/08/12 20:16:22;;;;;;;4.97;1.33;;;;;;;23.86;33.13;100237.25;20813371;28;20045;-68
2022/08/12 20:26:43;;;;;;;5.18;1.42;;;;;;;23.16;37.24;100236.03;20814288;28;20053;-67
2022/08/12 20:36:46;;;;;;;4.35;1.45;;;;;;;22.63;38.36;100243.25;20813734;28;20096;-68
2022/08/12 20:47:05;;;;;;;2.58;1.10;;;;;;;22.38;38.64;100259.22;20813583;28;20112;-67
2022/08/12 20:57:20;;;;;;;3.88;1.35;;;;;;;22.60;37.26;100261.28;20812558;28;20042;-68
2022/08/12 21:07:21;;;;;;;4.03;1.58;;;;;;;22.53;37.58;100263.53;20810603;28;20051;-68
2022/08/12 21:17:26;;;;;;;4.45;1.23;;;;;;;22.34;38.46;100273.72;20811026;28;20060;-67
2022/08/12 21:27:49;;;;;;;3.78;1.30;;;;;;;22.13;39.30;100271.50;20807829;28;20041;-67
2022/08/12 21:38:01;;;;;;;5.28;1.45;;;;;;;21.93;40.06;100274.56;20808383;28;20053;-69
2022/08/12 21:48:04;;;;;;;6.13;1.52;;;;;;;21.70;40.34;100284.94;20807923;28;20498;-68
2022/08/12 21:58:06;;;;;;;5.97;1.23;;;;;;;21.51;40.75;100290.56;20808245;28;20053;-69
2022/08/12 22:08:10;;;;;;;2.80;1.23;;;;;;;21.37;42.07;100295.03;20806634;28;20064;-70
2022/08/12 22:18:13;;;;;;;2.95;1.15;;;;;;;20.71;44.50;100299.88;20807047;28;20072;-69
2022/08/12 22:38:39;;;;;;;5.10;1.38;;;;;;;20.33;45.07;100310.06;20807619;28;20045;-68
2022/08/12 22:48:41;;;;;;;2.35;1.20;;;;;;;20.25;44.73;100307.81;20806973;28;20042;-67
2022/08/12 22:58:59;;;;;;;3.67;1.30;;;;;;;20.03;45.96;100307.34;20806206;28;20600;-68
2022/08/12 23:09:02;;;;;;;3.78;1.50;;;;;;;19.81;47.03;100298.84;20805101;28;20517;-68
2022/08/12 23:19:04;;;;;;;3.78;1.33;;;;;;;19.80;46.87;100289.19;20805524;28;20046;-68
2022/08/12 23:29:18;;;;;;;4.70;1.60;;;;;;;19.76;46.35;100292.94;20814424;28;20072;-68
2022/08/12 23:39:39;;;;;;;3.70;1.38;;;;;;;19.59;47.21;100289.34;20821185;28;20045;-68
2022/08/12 23:50:01;;;;;;;4.75;1.48;;;;;;;19.23;48.43;100290.41;20826249;28;20438;-68
